Time;durP1;ratioP1;P1;durP2;ratioP2;P2;SDS_P1;SDS_P2;PMS_P1;PMS_P2;Temp;Humidity;BMP_temperature;BMP_pressure;BME280_temperature;BME280_humidity;BME280_pressure;Samples;Min_cycle;Max_cycle;Signal;HPM_P1;HPM_P2
2021/07/13 00:01:34;;;;;;;6.15;4.85;;;;;;;;;;6126190;23;20056;-70
2021/07/13 00:03:59;;;;;;;5.35;4.82;;;;;;;;;;6126464;23;20315;-70
2021/07/13 00:06:25;;;;;;;6.22;5.03;;;;;;;;;;6126461;23;20002;-70
2021/07/13 00:08:51;;;;;;;6.50;5.43;;;;;;;;;;6126181;23;20446;-70
2021/07/13 00:11:18;;;;;;;5.68;5.20;;;;;;;;;;6124375;23;20440;-70
2021/07/13 00:13:44;;;;;;;4.75;4.35;;;;;;;;;;6126166;23;20489;-70
2021/07/13 00:16:10;;;;;;;6.47;4.20;;;;;;;;;;6126290;23;19998;-70
2021/07/13 00:18:37;;;;;;;6.05;4.32;;;;;;;;;;6126040;23;20009;-70
2021/07/13 00:21:03;;;;;;;6.45;4.60;;;;;;;;;;6124551;23;20002;-70
2021/07/13 00:23:29;;;;;;;4.78;4.18;;;;;;;;;;6100665;23;20016;-70
2021/07/13 00:25:54;;;;;;;9.02;4.32;;;;;;;;;;6124895;23;20021;-70
2021/07/13 00:28:19;;;;;;;5.57;4.25;;;;;;;;;;6126510;23;20010;-69
2021/07/13 00:30:45;;;;;;;4.80;4.35;;;;;;;;;;6100407;23;20311;-69
2021/07/13 00:33:11;;;;;;;5.00;4.38;;;;;;;;;;6124823;23;20077;-69
2021/07/13 00:35:36;;;;;;;5.85;4.47;;;;;;;;;;6126248;23;19994;-69
2021/07/13 00:38:01;;;;;;;5.45;4.45;;;;;;;;;;6126258;23;20014;-70
2021/07/13 00:40:27;;;;;;;6.70;4.22;;;;;;;;;;6100209;23;20026;-70
2021/07/13 00:42:53;;;;;;;5.10;4.70;;;;;;;;;;6126037;23;20006;-70
2021/07/13 00:45:19;;;;;;;5.60;4.65;;;;;;;;;;6126087;23;20005;-70
2021/07/13 00:47:46;;;;;;;5.13;4.43;;;;;;;;;;6100215;23;20029;-70
2021/07/13 00:50:14;;;;;;;5.55;5.05;;;;;;;;;;6125950;23;20026;-70
2021/07/13 00:52:39;;;;;;;4.93;4.45;;;;;;;;;;6125988;23;20034;-70
2021/07/13 00:55:05;;;;;;;6.35;4.50;;;;;;;;;;6126211;23;19998;-70
2021/07/13 00:57:31;;;;;;;5.28;4.80;;;;;;;;;;6125395;23;20382;-70
2021/07/13 00:59:56;;;;;;;4.78;4.43;;;;;;;;;;6126246;23;20006;-70
2021/07/13 01:02:23;;;;;;;4.97;4.47;;;;;;;;;;6126217;23;20395;-70
2021/07/13 01:04:50;;;;;;;4.95;4.30;;;;;;;;;;6126179;23;20025;-71
2021/07/13 01:07:30;;;;;;;4.60;4.30;;;;;;;;;;6100097;23;20014;-71
2021/07/13 01:10:02;;;;;;;4.32;3.92;;;;;;;;;;6125904;23;20013;-70
2021/07/13 01:12:46;;;;;;;4.30;4.00;;;;;;;;;;6124604;23;20037;-70
2021/07/13 01:15:14;;;;;;;5.38;4.25;;;;;;;;;;6126126;23;20009;-70
2021/07/13 01:17:43;;;;;;;4.72;4.32;;;;;;;;;;6125994;23;20022;-72
2021/07/13 01:20:27;;;;;;;5.30;4.78;;;;;;;;;;6125926;23;20049;-72
2021/07/13 01:23:22;;;;;;;5.03;4.63;;;;;;;;;;6125846;23;20061;-70
2021/07/13 01:25:56;;;;;;;5.38;4.43;;;;;;;;;;6048661;23;20099;-70
2021/07/13 01:28:23;;;;;;;4.63;4.22;;;;;;;;;;6101875;23;20036;-70
2021/07/13 01:30:57;;;;;;;5.30;4.90;;;;;;;;;;6127619;23;19998;-71
2021/07/13 01:33:24;;;;;;;5.38;4.97;;;;;;;;;;6128189;23;20001;-71
2021/07/13 01:36:11;;;;;;;5.07;4.72;;;;;;;;;;6127993;23;20076;-71
2021/07/13 01:38:39;;;;;;;6.13;5.55;;;;;;;;;;6126385;23;20064;-71
2021/07/13 01:41:07;;;;;;;5.90;5.15;;;;;;;;;;6127932;23;19998;-71
2021/07/13 01:43:35;;;;;;;5.95;5.28;;;;;;;;;;6126072;23;20013;-71
2021/07/13 01:46:00;;;;;;;5.65;5.22;;;;;;;;;;6127562;23;20007;-71
2021/07/13 01:48:28;;;;;;;5.55;5.07;;;;;;;;;;6126370;23;20012;-70
2021/07/13 01:50:55;;;;;;;5.22;4.82;;;;;;;;;;6128086;23;20292;-70
2021/07/13 01:53:20;;;;;;;5.80;5.35;;;;;;;;;;6127624;23;20017;-70
2021/07/13 01:55:46;;;;;;;5.43;4.82;;;;;;;;;;6125959;23;19998;-70
2021/07/13 01:58:12;;;;;;;5.35;4.65;;;;;;;;;;6101819;23;20010;-69
2021/07/13 02:00:40;;;;;;;5.25;4.63;;;;;;;;;;6127585;23;20017;-70
2021/07/13 02:03:07;;;;;;;5.43;4.90;;;;;;;;;;6127439;23;20088;-69
2021/07/13 02:05:33;;;;;;;5.15;4.72;;;;;;;;;;6127660;23;20008;-71
2021/07/13 02:08:00;;;;;;;5.43;4.93;;;;;;;;;;6127432;23;20038;-71
2021/07/13 02:10:26;;;;;;;5.63;5.25;;;;;;;;;;6127375;23;20029;-69
2021/07/13 02:12:52;;;;;;;5.68;5.00;;;;;;;;;;6101566;23;20020;-69
2021/07/13 02:15:18;;;;;;;8.05;5.93;;;;;;;;;;6127465;23;19998;-69
2021/07/13 02:17:45;;;;;;;5.90;5.38;;;;;;;;;;6127261;23;20033;-69
2021/07/13 02:20:11;;;;;;;6.88;5.93;;;;;;;;;;6125684;23;20009;-69
2021/07/13 02:22:37;;;;;;;6.93;6.22;;;;;;;;;;6101580;23;20010;-69
2021/07/13 02:25:04;;;;;;;6.10;5.22;;;;;;;;;;6127172;23;19998;-71
2021/07/13 02:27:31;;;;;;;6.35;5.85;;;;;;;;;;6127002;23;20014;-71
2021/07/13 02:30:00;;;;;;;5.80;5.40;;;;;;;;;;6127170;23;20009;-71
2021/07/13 02:32:35;;;;;;;5.70;5.20;;;;;;;;;;6127207;23;20017;-71
2021/07/13 02:35:02;;;;;;;5.88;5.47;;;;;;;;;;6101096;23;20010;-70
2021/07/13 02:37:28;;;;;;;5.85;5.35;;;;;;;;;;6126889;23;20002;-71
2021/07/13 02:39:53;;;;;;;7.30;5.88;;;;;;;;;;6101232;23;20379;-71
2021/07/13 02:42:19;;;;;;;7.00;6.40;;;;;;;;;;6127279;23;20385;-71
2021/07/13 02:44:45;;;;;;;7.85;6.93;;;;;;;;;;6127167;23;20414;-71
2021/07/13 02:47:12;;;;;;;7.72;6.90;;;;;;;;;;6127235;23;20033;-70
2021/07/13 02:49:44;;;;;;;8.13;7.35;;;;;;;;;;6127155;23;20057;-70
2021/07/13 02:52:15;;;;;;;9.98;9.05;;;;;;;;;;6126959;23;20002;-70
2021/07/13 02:54:41;;;;;;;7.57;6.20;;;;;;;;;;6101289;23;20016;-70
2021/07/13 02:57:07;;;;;;;8.18;7.30;;;;;;;;;;6120383;23;20042;-70
2021/07/13 02:59:34;;;;;;;8.93;8.02;;;;;;;;;;6097737;23;20002;-70
2021/07/13 03:02:00;;;;;;;7.90;7.20;;;;;;;;;;6097693;23;20014;-71
2021/07/13 03:04:26;;;;;;;9.57;8.57;;;;;;;;;;6097654;23;20034;-71
2021/07/13 03:06:52;;;;;;;8.10;7.35;;;;;;;;;;6097446;23;20304;-71
2021/07/13 03:09:18;;;;;;;8.57;7.05;;;;;;;;;;6097632;23;20034;-71
2021/07/13 03:11:45;;;;;;;10.45;9.35;;;;;;;;;;6097393;23;19998;-71
2021/07/13 03:14:12;;;;;;;9.15;8.05;;;;;;;;;;6097686;23;20010;-71
2021/07/13 03:16:37;;;;;;;9.63;7.88;;;;;;;;;;6097474;23;20360;-71
2021/07/13 03:19:04;;;;;;;11.50;10.35;;;;;;;;;;6120472;23;20043;-71
2021/07/13 03:21:30;;;;;;;10.32;8.35;;;;;;;;;;6097543;23;20081;-70
2021/07/13 03:24:00;;;;;;;11.23;10.05;;;;;;;;;;6097794;23;20006;-70
2021/07/13 03:26:29;;;;;;;14.27;11.27;;;;;;;;;;6097532;23;20454;-70
2021/07/13 03:28:57;;;;;;;11.13;9.45;;;;;;;;;;6097543;23;20408;-70
2021/07/13 03:31:22;;;;;;;12.10;9.85;;;;;;;;;;6120156;23;20423;-70
2021/07/13 03:33:48;;;;;;;10.88;8.85;;;;;;;;;;6097366;23;20053;-70
2021/07/13 03:36:13;;;;;;;14.60;9.48;;;;;;;;;;6097489;23;19994;-70
2021/07/13 03:38:39;;;;;;;12.02;9.32;;;;;;;;;;6097262;23;20057;-69
2021/07/13 03:41:05;;;;;;;13.15;8.85;;;;;;;;;;6097411;23;20009;-70
2021/07/13 03:43:30;;;;;;;9.00;7.35;;;;;;;;;;6097426;23;20021;-70
2021/07/13 03:45:56;;;;;;;10.00;7.57;;;;;;;;;;6095710;23;20550;-70
2021/07/13 03:48:23;;;;;;;13.25;9.93;;;;;;;;;;6096962;23;20011;-70
2021/07/13 03:50:48;;;;;;;13.40;8.90;;;;;;;;;;6095612;23;20084;-70
2021/07/13 03:53:14;;;;;;;13.55;9.55;;;;;;;;;;6095571;23;20013;-70
2021/07/13 03:55:40;;;;;;;14.18;10.43;;;;;;;;;;6095844;23;20454;-71
2021/07/13 03:58:06;;;;;;;19.27;12.75;;;;;;;;;;6118277;23;20033;-70
2021/07/13 04:00:32;;;;;;;12.50;9.90;;;;;;;;;;6126495;23;20064;-70
2021/07/13 04:02:59;;;;;;;13.55;10.13;;;;;;;;;;6126731;23;20006;-70
2021/07/13 04:05:24;;;;;;;17.00;11.38;;;;;;;;;;6124650;23;20002;-70
2021/07/13 04:07:50;;;;;;;17.58;12.88;;;;;;;;;;6126274;23;20014;-70
2021/07/13 04:10:16;;;;;;;17.83;12.90;;;;;;;;;;6124788;23;20002;-70
2021/07/13 04:12:42;;;;;;;16.00;12.40;;;;;;;;;;6126161;23;20006;-70
2021/07/13 04:15:08;;;;;;;18.27;12.82;;;;;;;;;;6126374;23;20004;-70
2021/07/13 04:17:34;;;;;;;16.73;12.55;;;;;;;;;;6124409;23;20013;-70
2021/07/13 04:19:59;;;;;;;21.52;14.02;;;;;;;;;;6126583;23;20002;-70
2021/07/13 04:22:24;;;;;;;18.45;13.15;;;;;;;;;;6126470;23;20009;-70
2021/07/13 04:24:50;;;;;;;18.75;13.10;;;;;;;;;;6126727;23;20060;-70
2021/07/13 04:27:16;;;;;;;18.98;13.40;;;;;;;;;;6126152;23;20084;-70
2021/07/13 04:29:41;;;;;;;18.05;12.43;;;;;;;;;;6126729;23;19997;-69
2021/07/13 04:32:07;;;;;;;17.52;12.07;;;;;;;;;;6124949;23;20042;-71
2021/07/13 04:34:34;;;;;;;15.93;11.88;;;;;;;;;;6126337;23;19994;-71
2021/07/13 04:37:00;;;;;;;19.95;13.25;;;;;;;;;;6126329;23;20006;-71
2021/07/13 04:39:25;;;;;;;18.17;13.10;;;;;;;;;;6126288;23;20004;-71
2021/07/13 04:41:51;;;;;;;16.85;11.90;;;;;;;;;;6124929;23;20014;-70
2021/07/13 04:44:16;;;;;;;21.73;14.70;;;;;;;;;;6126387;23;19997;-71
2021/07/13 04:46:42;;;;;;;17.55;13.18;;;;;;;;;;6126272;23;20453;-71
2021/07/13 04:49:08;;;;;;;19.33;12.73;;;;;;;;;;6124801;23;19998;-71
2021/07/13 04:51:34;;;;;;;17.88;12.18;;;;;;;;;;6100396;23;20018;-71
2021/07/13 04:54:00;;;;;;;18.85;13.30;;;;;;;;;;6126470;23;20002;-70
2021/07/13 04:56:25;;;;;;;16.00;11.93;;;;;;;;;;6126131;23;20009;-70
2021/07/13 04:58:51;;;;;;;17.98;12.70;;;;;;;;;;6127408;23;20434;-71
2021/07/13 05:01:16;;;;;;;18.55;13.07;;;;;;;;;;6126443;23;20017;-71
2021/07/13 05:03:42;;;;;;;19.67;12.85;;;;;;;;;;6128144;23;20002;-71
2021/07/13 05:06:07;;;;;;;15.70;11.02;;;;;;;;;;6128195;23;20013;-71
2021/07/13 05:08:33;;;;;;;13.32;10.35;;;;;;;;;;6128034;23;20395;-71
2021/07/13 05:10:59;;;;;;;17.95;12.27;;;;;;;;;;6127869;23;20012;-71
2021/07/13 05:13:24;;;;;;;18.67;12.30;;;;;;;;;;6127651;23;19998;-71
2021/07/13 05:15:50;;;;;;;15.25;11.00;;;;;;;;;;6128016;23;20026;-71
2021/07/13 05:18:16;;;;;;;14.52;11.40;;;;;;;;;;6128070;23;19994;-71
2021/07/13 05:20:50;;;;;;;15.93;12.77;;;;;;;;;;6128138;23;20006;-71
2021/07/13 05:23:17;;;;;;;15.70;12.57;;;;;;;;;;6128299;23;20010;-71
2021/07/13 05:25:42;;;;;;;13.82;10.68;;;;;;;;;;6127779;23;20490;-71
2021/07/13 05:28:10;;;;;;;11.73;9.90;;;;;;;;;;6128104;23;20026;-71
2021/07/13 05:30:37;;;;;;;12.40;9.85;;;;;;;;;;6127901;23;19994;-71
2021/07/13 05:33:03;;;;;;;14.05;10.05;;;;;;;;;;6127816;23;20065;-71
2021/07/13 05:35:28;;;;;;;11.05;9.50;;;;;;;;;;6126264;23;20021;-71
2021/07/13 05:37:54;;;;;;;12.52;8.60;;;;;;;;;;6128128;23;20085;-71
2021/07/13 05:40:20;;;;;;;13.82;10.00;;;;;;;;;;6127853;23;20343;-71
2021/07/13 05:42:45;;;;;;;11.93;9.70;;;;;;;;;;6127864;23;20031;-71
2021/07/13 05:45:11;;;;;;;8.85;7.28;;;;;;;;;;6127817;23;20001;-71
2021/07/13 05:47:36;;;;;;;10.25;8.45;;;;;;;;;;6127957;23;20016;-71
2021/07/13 05:50:04;;;;;;;9.70;8.18;;;;;;;;;;6127533;23;19998;-71
2021/07/13 05:52:30;;;;;;;10.43;9.25;;;;;;;;;;6127732;23;20013;-71
2021/07/13 05:54:55;;;;;;;11.90;9.55;;;;;;;;;;6127765;23;20323;-71
2021/07/13 05:57:21;;;;;;;10.15;8.95;;;;;;;;;;6089057;23;20010;-71
2021/07/13 05:59:46;;;;;;;10.85;7.78;;;;;;;;;;6096854;23;20035;-71
2021/07/13 06:02:12;;;;;;;8.50;7.40;;;;;;;;;;6096679;23;20316;-71
2021/07/13 06:04:39;;;;;;;9.13;7.88;;;;;;;;;;6098243;23;20006;-71
2021/07/13 06:07:05;;;;;;;8.10;7.15;;;;;;;;;;6097926;23;20036;-71
2021/07/13 06:09:30;;;;;;;8.18;7.28;;;;;;;;;;6098025;23;20334;-71
2021/07/13 06:11:56;;;;;;;8.95;7.38;;;;;;;;;;6097947;23;20006;-71
2021/07/13 06:14:22;;;;;;;7.65;6.95;;;;;;;;;;6098021;23;20407;-70
2021/07/13 06:16:48;;;;;;;9.00;8.20;;;;;;;;;;6072743;23;20007;-69
2021/07/13 06:19:13;;;;;;;10.20;9.07;;;;;;;;;;6097970;23;20471;-69
2021/07/13 06:21:39;;;;;;;12.07;9.07;;;;;;;;;;6096183;23;20442;-69
2021/07/13 06:24:05;;;;;;;10.38;8.63;;;;;;;;;;6098121;23;20323;-70
2021/07/13 06:26:30;;;;;;;9.45;7.97;;;;;;;;;;6098112;23;20021;-70
2021/07/13 06:28:56;;;;;;;9.57;8.70;;;;;;;;;;6096365;23;20423;-69
2021/07/13 06:31:21;;;;;;;8.55;7.65;;;;;;;;;;6098040;23;20085;-70
2021/07/13 06:33:47;;;;;;;8.40;7.60;;;;;;;;;;6097991;23;19995;-71
2021/07/13 06:36:14;;;;;;;8.15;7.35;;;;;;;;;;6098346;23;20006;-71
2021/07/13 06:38:40;;;;;;;8.75;8.02;;;;;;;;;;6097588;23;20026;-71
2021/07/13 06:41:05;;;;;;;8.90;8.20;;;;;;;;;;6072344;23;20053;-71
2021/07/13 06:43:31;;;;;;;7.68;6.70;;;;;;;;;;6097915;23;19998;-70
2021/07/13 06:45:56;;;;;;;6.80;6.30;;;;;;;;;;6097843;23;20037;-69
2021/07/13 06:48:23;;;;;;;7.78;6.82;;;;;;;;;;6072369;23;20371;-70
2021/07/13 06:50:50;;;;;;;8.60;7.30;;;;;;;;;;6096234;23;20074;-70
2021/07/13 06:53:15;;;;;;;8.48;7.53;;;;;;;;;;6097727;23;19999;-70
2021/07/13 06:55:41;;;;;;;7.60;6.90;;;;;;;;;;6097716;23;20006;-71
2021/07/13 06:58:06;;;;;;;9.02;8.13;;;;;;;;;;6118960;23;20014;-71
2021/07/13 07:00:32;;;;;;;7.97;7.18;;;;;;;;;;6127001;23;20009;-71
2021/07/13 07:02:57;;;;;;;8.23;7.47;;;;;;;;;;6126550;23;20445;-71
2021/07/13 07:05:22;;;;;;;7.47;6.85;;;;;;;;;;6127201;23;20103;-71
2021/07/13 07:07:50;;;;;;;6.85;6.18;;;;;;;;;;6126974;23;19998;-71
2021/07/13 07:10:16;;;;;;;7.80;7.10;;;;;;;;;;6127157;23;20029;-71
2021/07/13 07:12:42;;;;;;;7.90;7.20;;;;;;;;;;6127197;23;20005;-71
2021/07/13 07:15:08;;;;;;;7.95;7.25;;;;;;;;;;6126880;23;20338;-71
2021/07/13 07:17:41;;;;;;;8.27;7.47;;;;;;;;;;6126851;23;20001;-71
2021/07/13 07:20:07;;;;;;;8.18;6.82;;;;;;;;;;6126872;23;20037;-71
2021/07/13 07:22:32;;;;;;;7.70;6.97;;;;;;;;;;6126484;23;19998;-72
2021/07/13 07:24:58;;;;;;;9.43;7.15;;;;;;;;;;6126974;23;20009;-71
2021/07/13 07:27:23;;;;;;;6.88;6.35;;;;;;;;;;6125993;23;19998;-72
2021/07/13 07:29:49;;;;;;;8.00;6.95;;;;;;;;;;6125327;23;20006;-72
2021/07/13 07:32:14;;;;;;;7.25;6.65;;;;;;;;;;6126645;23;20044;-71
2021/07/13 07:34:40;;;;;;;8.05;7.25;;;;;;;;;;6126686;23;20089;-71
2021/07/13 07:37:05;;;;;;;8.10;7.30;;;;;;;;;;6126865;23;20386;-71
2021/07/13 07:39:31;;;;;;;8.40;7.35;;;;;;;;;;6126865;23;20065;-72
2021/07/13 07:41:57;;;;;;;6.90;6.35;;;;;;;;;;6126814;23;20025;-72
2021/07/13 07:44:23;;;;;;;8.45;7.60;;;;;;;;;;6101021;23;20422;-72
2021/07/13 07:46:49;;;;;;;7.70;7.15;;;;;;;;;;6126623;23;19997;-72
2021/07/13 07:49:15;;;;;;;8.25;7.63;;;;;;;;;;6126528;23;20016;-71
2021/07/13 07:51:40;;;;;;;8.52;7.72;;;;;;;;;;6126313;23;20033;-72
2021/07/13 07:54:06;;;;;;;8.82;7.93;;;;;;;;;;6126569;23;20028;-72
2021/07/13 07:56:33;;;;;;;9.25;8.10;;;;;;;;;;6126376;23;20029;-72
2021/07/13 07:58:59;;;;;;;8.63;7.40;;;;;;;;;;6126378;23;20038;-70
2021/07/13 08:01:24;;;;;;;8.13;7.43;;;;;;;;;;6126585;23;20447;-70
2021/07/13 08:03:50;;;;;;;9.07;8.27;;;;;;;;;;6126464;23;20009;-71
2021/07/13 08:06:16;;;;;;;8.73;7.93;;;;;;;;;;6126605;23;19997;-71
2021/07/13 08:08:41;;;;;;;8.48;7.78;;;;;;;;;;6100502;23;20002;-71
2021/07/13 08:11:06;;;;;;;9.30;8.23;;;;;;;;;;6126464;23;20005;-71
2021/07/13 08:13:32;;;;;;;9.15;8.23;;;;;;;;;;6100498;23;20092;-71
2021/07/13 08:15:59;;;;;;;8.88;8.07;;;;;;;;;;6126804;23;19994;-71
2021/07/13 08:18:24;;;;;;;8.20;7.50;;;;;;;;;;6126354;23;20334;-71
2021/07/13 08:20:50;;;;;;;8.18;7.40;;;;;;;;;;6124734;23;20009;-71
2021/07/13 08:23:16;;;;;;;8.32;7.68;;;;;;;;;;6126627;23;20016;-71
2021/07/13 08:25:41;;;;;;;8.88;7.93;;;;;;;;;;6126557;23;20022;-71
2021/07/13 08:28:07;;;;;;;8.63;7.72;;;;;;;;;;6126575;23;20042;-68
2021/07/13 08:30:32;;;;;;;8.93;8.13;;;;;;;;;;6124732;23;19998;-68
2021/07/13 08:32:58;;;;;;;8.45;7.70;;;;;;;;;;6126530;23;20017;-68
2021/07/13 08:35:23;;;;;;;8.98;8.10;;;;;;;;;;6126813;23;20001;-68
2021/07/13 08:37:51;;;;;;;8.88;7.97;;;;;;;;;;6128465;23;20334;-68
2021/07/13 08:40:18;;;;;;;9.30;8.38;;;;;;;;;;6128536;23;20001;-68
2021/07/13 08:42:43;;;;;;;9.13;8.05;;;;;;;;;;6102633;23;20069;-69
2021/07/13 08:45:16;;;;;;;8.32;7.72;;;;;;;;;;6128211;23;20002;-68
2021/07/13 08:47:42;;;;;;;8.70;8.00;;;;;;;;;;6128276;23;20461;-68
2021/07/13 08:50:09;;;;;;;8.77;8.02;;;;;;;;;;6128295;23;20005;-69
2021/07/13 08:52:35;;;;;;;9.20;8.32;;;;;;;;;;6127908;23;20501;-69
2021/07/13 08:55:02;;;;;;;8.63;7.93;;;;;;;;;;6127742;23;20002;-69
2021/07/13 08:57:27;;;;;;;8.23;7.53;;;;;;;;;;6127511;23;20073;-69
2021/07/13 08:59:53;;;;;;;9.00;8.13;;;;;;;;;;6126613;23;20315;-69
2021/07/13 09:02:18;;;;;;;9.23;8.30;;;;;;;;;;6128098;23;20040;-69
2021/07/13 09:04:44;;;;;;;9.13;8.25;;;;;;;;;;6128107;23;19997;-69
2021/07/13 09:07:09;;;;;;;9.93;8.95;;;;;;;;;;6128309;23;20010;-69
2021/07/13 09:09:39;;;;;;;9.93;8.45;;;;;;;;;;6128065;23;20072;-72
2021/07/13 09:12:08;;;;;;;8.75;7.90;;;;;;;;;;6102201;23;20010;-72
2021/07/13 09:14:46;;;;;;;9.80;8.40;;;;;;;;;;6102125;23;20067;-68
2021/07/13 09:17:30;;;;;;;10.05;8.60;;;;;;;;;;6127237;23;20002;-68
2021/07/13 09:20:00;;;;;;;9.80;9.00;;;;;;;;;;6126507;23;20311;-69
2021/07/13 09:22:25;;;;;;;8.80;7.90;;;;;;;;;;6128145;23;20300;-68
2021/07/13 09:24:51;;;;;;;9.27;8.38;;;;;;;;;;6126425;23;20029;-68
2021/07/13 09:27:19;;;;;;;9.05;8.25;;;;;;;;;;6126140;23;20006;-68
2021/07/13 09:29:47;;;;;;;9.50;8.70;;;;;;;;;;6127462;23;20031;-68
2021/07/13 09:32:29;;;;;;;9.65;8.77;;;;;;;;;;6126970;23;20006;-68
2021/07/13 09:34:55;;;;;;;9.30;8.50;;;;;;;;;;6102324;23;20007;-68
2021/07/13 09:37:23;;;;;;;10.25;9.15;;;;;;;;;;6127709;23;20005;-69
2021/07/13 09:39:59;;;;;;;9.30;8.40;;;;;;;;;;6127947;23;20158;-72
2021/07/13 09:42:26;;;;;;;9.18;8.38;;;;;;;;;;6127669;23;20092;-72
2021/07/13 09:44:52;;;;;;;10.10;9.18;;;;;;;;;;6126863;23;20028;-72
2021/07/13 09:47:30;;;;;;;10.15;9.25;;;;;;;;;;6127511;23;20486;-72
2021/07/13 09:49:56;;;;;;;10.65;9.73;;;;;;;;;;6126961;23;20010;-71
2021/07/13 09:52:27;;;;;;;8.88;8.18;;;;;;;;;;6127459;23;20037;-72
2021/07/13 09:54:53;;;;;;;9.95;8.93;;;;;;;;;;6127650;23;20485;-72
2021/07/13 09:57:28;;;;;;;9.70;8.90;;;;;;;;;;6126356;23;20056;-69
2021/07/13 09:59:57;;;;;;;9.98;9.00;;;;;;;;;;6127628;23;20056;-69
2021/07/13 10:02:26;;;;;;;9.65;8.85;;;;;;;;;;6127869;23;20314;-68
2021/07/13 10:04:54;;;;;;;9.45;8.65;;;;;;;;;;6126874;23;20014;-69
2021/07/13 10:07:21;;;;;;;11.02;9.20;;;;;;;;;;6127700;23;19998;-69
2021/07/13 10:09:51;;;;;;;9.15;8.35;;;;;;;;;;6127450;23;20005;-69
2021/07/13 10:12:17;;;;;;;9.73;8.93;;;;;;;;;;6127112;23;20010;-68
2021/07/13 10:14:44;;;;;;;9.65;8.80;;;;;;;;;;6127434;23;20022;-69
2021/07/13 10:17:10;;;;;;;9.57;8.68;;;;;;;;;;6127118;23;20037;-72
2021/07/13 10:19:39;;;;;;;10.52;9.20;;;;;;;;;;6127237;23;20362;-72
2021/07/13 10:22:05;;;;;;;13.65;9.60;;;;;;;;;;6101853;23;20023;-72
2021/07/13 10:24:31;;;;;;;9.70;8.70;;;;;;;;;;6101439;23;20014;-72
2021/07/13 10:26:59;;;;;;;10.00;9.15;;;;;;;;;;6127441;23;20013;-72
2021/07/13 10:29:33;;;;;;;10.93;8.55;;;;;;;;;;6125757;23;20036;-72
2021/07/13 10:32:00;;;;;;;10.80;8.88;;;;;;;;;;6101504;23;20323;-69
2021/07/13 10:34:43;;;;;;;8.80;8.10;;;;;;;;;;6127154;23;19998;-69
2021/07/13 10:37:28;;;;;;;10.38;9.38;;;;;;;;;;6127059;23;20002;-71
2021/07/13 10:40:13;;;;;;;9.35;8.45;;;;;;;;;;6127145;23;20006;-72
2021/07/13 10:42:41;;;;;;;11.45;8.48;;;;;;;;;;6127496;23;20010;-72
2021/07/13 10:45:14;;;;;;;9.98;9.18;;;;;;;;;;6126980;23;20001;-72
2021/07/13 10:47:58;;;;;;;10.38;9.45;;;;;;;;;;6101404;23;20374;-72
2021/07/13 10:50:27;;;;;;;9.90;8.95;;;;;;;;;;6127378;23;20017;-72
2021/07/13 10:53:06;;;;;;;9.80;9.10;;;;;;;;;;6126850;23;20002;-72
2021/07/13 10:55:33;;;;;;;10.25;9.25;;;;;;;;;;6126779;23;20009;-72
2021/07/13 10:58:10;;;;;;;9.85;8.98;;;;;;;;;;6126793;23;20010;-72
2021/07/13 11:00:51;;;;;;;9.77;8.98;;;;;;;;;;6126955;23;20445;-72
2021/07/13 11:03:29;;;;;;;10.65;8.77;;;;;;;;;;6126828;23;20032;-72
2021/07/13 11:05:56;;;;;;;9.68;8.77;;;;;;;;;;6127090;23;20081;-72
2021/07/13 11:08:40;;;;;;;11.05;8.90;;;;;;;;;;6126866;23;20037;-72
2021/07/13 11:11:14;;;;;;;9.77;8.88;;;;;;;;;;6126728;23;20010;-72
2021/07/13 11:13:41;;;;;;;10.82;9.10;;;;;;;;;;6126810;23;20006;-69
2021/07/13 11:16:07;;;;;;;9.65;8.85;;;;;;;;;;6126957;23;20004;-69
2021/07/13 11:18:34;;;;;;;11.88;9.52;;;;;;;;;;6127062;23;20026;-69
2021/07/13 11:21:14;;;;;;;11.57;9.90;;;;;;;;;;6126868;23;20422;-68
2021/07/13 11:23:40;;;;;;;14.57;9.70;;;;;;;;;;6126821;23;20089;-68
2021/07/13 11:26:06;;;;;;;10.43;9.52;;;;;;;;;;6126682;23;20374;-68
2021/07/13 11:28:32;;;;;;;10.65;9.55;;;;;;;;;;6126812;23;20002;-72
2021/07/13 11:30:58;;;;;;;10.85;9.75;;;;;;;;;;6126579;23;20442;-72
2021/07/13 11:33:29;;;;;;;10.45;9.57;;;;;;;;;;6126624;23;20010;-72
2021/07/13 11:35:57;;;;;;;9.98;9.02;;;;;;;;;;6126473;23;20002;-72
2021/07/13 11:38:26;;;;;;;10.50;9.45;;;;;;;;;;6126505;23;20078;-73
2021/07/13 11:41:11;;;;;;;10.27;9.35;;;;;;;;;;6125017;23;20022;-71
2021/07/13 11:43:37;;;;;;;11.10;9.52;;;;;;;;;;6126623;23;20016;-72
2021/07/13 11:46:12;;;;;;;11.13;10.15;;;;;;;;;;6100901;23;20026;-71
2021/07/13 11:48:38;;;;;;;9.95;9.05;;;;;;;;;;6126317;23;20057;-72
2021/07/13 11:51:04;;;;;;;11.40;10.40;;;;;;;;;;6126758;23;19998;-72
2021/07/13 11:53:31;;;;;;;10.30;9.30;;;;;;;;;;6126760;23;20013;-72
2021/07/13 11:56:00;;;;;;;10.77;9.77;;;;;;;;;;6126828;23;20005;-72
2021/07/13 11:58:27;;;;;;;9.88;9.05;;;;;;;;;;6076509;23;20010;-72
2021/07/13 12:00:52;;;;;;;11.38;10.35;;;;;;;;;;6097199;23;20003;-72
2021/07/13 12:03:28;;;;;;;10.38;9.48;;;;;;;;;;6095827;23;20044;-72
2021/07/13 12:06:10;;;;;;;9.75;8.73;;;;;;;;;;6097484;23;20011;-72
2021/07/13 12:08:36;;;;;;;9.88;9.07;;;;;;;;;;6095376;23;20022;-72
2021/07/13 12:11:01;;;;;;;10.27;9.02;;;;;;;;;;6097031;23;20002;-72
2021/07/13 12:13:27;;;;;;;9.93;9.02;;;;;;;;;;6097185;23;20009;-72
2021/07/13 12:15:52;;;;;;;9.63;8.73;;;;;;;;;;6097195;23;20021;-72
2021/07/13 12:18:18;;;;;;;10.13;9.15;;;;;;;;;;6097204;23;20006;-72
2021/07/13 12:20:44;;;;;;;9.65;8.65;;;;;;;;;;6097029;23;19998;-72
2021/07/13 12:23:10;;;;;;;9.35;8.45;;;;;;;;;;6097060;23;20007;-71
2021/07/13 12:25:35;;;;;;;12.10;9.57;;;;;;;;;;6097077;23;19999;-71
2021/07/13 12:28:11;;;;;;;10.32;8.65;;;;;;;;;;6071768;23;20018;-71
2021/07/13 12:30:36;;;;;;;10.55;9.57;;;;;;;;;;6097040;23;20006;-72
2021/07/13 12:33:04;;;;;;;9.77;8.88;;;;;;;;;;6096892;23;20005;-70
2021/07/13 12:35:30;;;;;;;10.40;9.35;;;;;;;;;;6096573;23;20006;-72
2021/07/13 12:37:55;;;;;;;9.35;8.45;;;;;;;;;;6097062;23;20006;-71
2021/07/13 12:40:27;;;;;;;9.90;8.38;;;;;;;;;;6097069;23;20010;-72
2021/07/13 12:42:53;;;;;;;10.43;9.52;;;;;;;;;;6097162;23;20011;-72
2021/07/13 12:45:24;;;;;;;9.38;8.52;;;;;;;;;;6097113;23;20062;-72
2021/07/13 12:47:50;;;;;;;11.18;10.18;;;;;;;;;;6097342;23;20086;-69
2021/07/13 12:50:25;;;;;;;9.75;8.85;;;;;;;;;;6097132;23;20503;-70
2021/07/13 12:53:03;;;;;;;9.73;8.82;;;;;;;;;;6097002;23;20338;-71
2021/07/13 12:55:37;;;;;;;9.32;8.40;;;;;;;;;;6096994;23;20012;-71
2021/07/13 12:58:09;;;;;;;9.07;8.15;;;;;;;;;;6116516;23;20022;-71
2021/07/13 13:00:35;;;;;;;9.20;8.50;;;;;;;;;;6125970;23;20003;-71
2021/07/13 13:03:02;;;;;;;9.15;7.88;;;;;;;;;;6126168;23;20001;-72
2021/07/13 13:05:28;;;;;;;9.65;8.82;;;;;;;;;;6126039;23;20006;-72
2021/07/13 13:08:10;;;;;;;9.30;8.40;;;;;;;;;;6124709;23;20009;-70
2021/07/13 13:10:38;;;;;;;8.48;7.78;;;;;;;;;;6126060;23;20069;-72
2021/07/13 13:13:04;;;;;;;8.65;7.85;;;;;;;;;;6126120;23;20334;-72
2021/07/13 13:15:30;;;;;;;8.45;7.65;;;;;;;;;;6126217;23;20006;-72
2021/07/13 13:17:56;;;;;;;8.88;8.13;;;;;;;;;;6126237;23;19998;-68
2021/07/13 13:20:22;;;;;;;8.57;7.93;;;;;;;;;;6127359;23;20002;-67
2021/07/13 13:22:49;;;;;;;8.95;8.23;;;;;;;;;;6126213;23;19998;-68
2021/07/13 13:25:15;;;;;;;8.63;7.95;;;;;;;;;;6127682;23;20006;-67
2021/07/13 13:27:41;;;;;;;7.47;6.97;;;;;;;;;;6126513;23;20053;-67
2021/07/13 13:30:08;;;;;;;7.97;7.38;;;;;;;;;;6101574;23;20018;-67
2021/07/13 13:32:35;;;;;;;8.50;7.80;;;;;;;;;;6101953;23;20002;-67
2021/07/13 13:35:01;;;;;;;10.15;9.20;;;;;;;;;;6126508;23;20082;-67
2021/07/13 13:37:26;;;;;;;8.70;8.00;;;;;;;;;;6127735;23;20033;-67
2021/07/13 13:39:52;;;;;;;8.50;7.78;;;;;;;;;;6126211;23;20002;-67
2021/07/13 13:42:17;;;;;;;8.90;8.10;;;;;;;;;;6127801;23;20008;-67
2021/07/13 13:44:43;;;;;;;9.02;8.32;;;;;;;;;;6128105;23;20013;-67
2021/07/13 13:47:08;;;;;;;9.05;8.25;;;;;;;;;;6126318;23;19998;-67
2021/07/13 13:49:34;;;;;;;11.20;8.88;;;;;;;;;;6127610;23;20009;-67
2021/07/13 13:51:59;;;;;;;9.70;8.23;;;;;;;;;;6127657;23;20025;-67
2021/07/13 13:54:25;;;;;;;8.80;7.97;;;;;;;;;;6127672;23;20009;-67
2021/07/13 13:56:50;;;;;;;9.85;9.05;;;;;;;;;;6125595;23;20010;-68
2021/07/13 13:59:16;;;;;;;9.50;8.65;;;;;;;;;;6102166;23;20010;-67
2021/07/13 14:01:41;;;;;;;9.50;8.70;;;;;;;;;;6101583;23;20051;-67
2021/07/13 14:04:07;;;;;;;10.18;9.15;;;;;;;;;;6126114;23;20033;-67
2021/07/13 14:06:32;;;;;;;9.90;9.07;;;;;;;;;;6126362;23;20076;-67
2021/07/13 14:08:59;;;;;;;9.80;8.90;;;;;;;;;;6101603;23;20053;-67
2021/07/13 14:11:25;;;;;;;9.18;8.48;;;;;;;;;;6127107;23;21864;-67
2021/07/13 14:13:50;;;;;;;10.15;8.10;;;;;;;;;;6127267;23;20005;-70
2021/07/13 14:16:16;;;;;;;8.73;8.13;;;;;;;;;;6127468;23;19994;-72
2021/07/13 14:18:42;;;;;;;9.15;8.30;;;;;;;;;;6101566;23;20002;-71
2021/07/13 14:21:08;;;;;;;12.77;11.00;;;;;;;;;;6127585;23;19998;-70
2021/07/13 14:23:33;;;;;;;8.40;7.60;;;;;;;;;;6127284;23;20101;-70
2021/07/13 14:25:59;;;;;;;7.93;7.32;;;;;;;;;;6126870;23;19994;-70
2021/07/13 14:28:25;;;;;;;10.63;8.75;;;;;;;;;;6127597;23;20006;-70
2021/07/13 14:30:50;;;;;;;17.95;13.15;;;;;;;;;;6126952;23;20013;-70
2021/07/13 14:33:16;;;;;;;13.30;10.18;;;;;;;;;;6127265;23;20017;-70
2021/07/13 14:35:41;;;;;;;10.07;7.72;;;;;;;;;;6127397;23;20477;-71
2021/07/13 14:38:07;;;;;;;7.38;6.82;;;;;;;;;;6127384;23;20006;-72